Time;durP1;ratioP1;P1;durP2;ratioP2;P2;SDS_P1;SDS_P2;PMS_P1;PMS_P2;Temp;Humidity;BMP_temperature;BMP_pressure;BME280_temperature;BME280_humidity;BME280_pressure;Samples;Min_cycle;Max_cycle;Signal;HPM_P1;HPM_P2
2022/01/31 00:00:57;;;;;;;31.23;7.55;;;;;;;7.85;70.44;101470.81;4981878;28;20073;-59
2022/01/31 00:03:22;;;;;;;26.60;7.82;;;;;;;7.86;70.63;101456.13;4998500;28;20572;-59
2022/01/31 00:05:48;;;;;;;27.08;7.40;;;;;;;7.79;70.95;101438.56;4985040;28;20044;-58
2022/01/31 00:08:20;;;;;;;31.08;9.10;;;;;;;7.75;71.29;101442.75;4983188;28;20053;-59
2022/01/31 00:10:46;;;;;;;29.10;10.15;;;;;;;7.72;71.71;101408.94;4983751;28;20080;-59
2022/01/31 00:13:17;;;;;;;27.17;9.63;;;;;;;7.74;71.49;101410.72;4972732;28;20073;-59
2022/01/31 00:15:46;;;;;;;31.90;9.40;;;;;;;7.78;71.54;101416.91;4983035;28;20533;-58
2022/01/31 00:18:12;;;;;;;23.80;9.57;;;;;;;7.69;72.17;101414.00;4984380;28;20401;-58
2022/01/31 00:20:37;;;;;;;32.75;10.43;;;;;;;7.63;72.40;101408.59;4995467;28;20602;-58
2022/01/31 00:23:03;;;;;;;30.08;9.73;;;;;;;7.77;72.17;101399.56;4976506;28;20054;-60
2022/01/31 00:25:28;;;;;;;29.20;9.82;;;;;;;7.79;71.96;101384.94;4998500;28;20052;-58
2022/01/31 00:27:54;;;;;;;23.58;9.52;;;;;;;7.76;72.11;101369.25;4987522;28;20077;-59
2022/01/31 00:30:20;;;;;;;25.88;9.15;;;;;;;7.58;72.78;101359.16;4983958;28;20549;-58
2022/01/31 00:32:47;;;;;;;25.38;9.52;;;;;;;7.70;72.79;101348.28;4986812;28;20056;-59
2022/01/31 00:35:13;;;;;;;26.73;9.18;;;;;;;7.68;73.18;101334.41;4977504;28;20064;-59
2022/01/31 00:37:38;;;;;;;27.00;8.90;;;;;;;7.73;73.00;101325.06;4984938;28;20572;-59
2022/01/31 00:40:05;;;;;;;32.53;9.05;;;;;;;7.69;72.87;101303.28;4984541;28;20139;-59
2022/01/31 00:42:32;;;;;;;23.92;8.55;;;;;;;7.78;73.04;101301.84;4977495;28;20093;-58
2022/01/31 00:47:46;;;;;;;20.10;6.85;;;;;;;7.85;73.39;101294.28;4979437;28;20379;-58
2022/01/31 00:50:13;;;;;;;26.85;6.72;;;;;;;7.78;73.51;101279.34;4985705;28;20476;-59
2022/01/31 00:52:40;;;;;;;20.27;6.40;;;;;;;7.92;73.06;101269.41;4984761;28;20525;-59
2022/01/31 00:55:06;;;;;;;22.52;6.82;;;;;;;7.92;73.46;101259.03;4975328;28;20381;-60
2022/01/31 00:57:43;;;;;;;27.90;6.85;;;;;;;7.95;73.18;101254.78;4989013;28;20042;-59
2022/01/31 01:00:10;;;;;;;23.73;6.32;;;;;;;8.06;72.98;101244.72;4985189;28;20042;-59
2022/01/31 01:02:35;;;;;;;21.20;6.05;;;;;;;8.03;73.34;101229.94;4994217;28;20046;-60
2022/01/31 01:05:01;;;;;;;22.67;5.47;;;;;;;8.12;73.16;101225.00;4978761;28;20096;-59
2022/01/31 01:07:26;;;;;;;18.50;6.15;;;;;;;8.18;73.31;101215.63;4984183;28;20161;-59
2022/01/31 01:09:52;;;;;;;17.95;5.22;;;;;;;8.06;73.29;101206.66;4989252;28;20057;-59
2022/01/31 01:12:18;;;;;;;18.83;5.40;;;;;;;7.91;74.21;101182.84;5004529;28;20061;-59
2022/01/31 01:14:45;;;;;;;16.17;5.30;;;;;;;8.06;73.84;101192.78;4985308;28;20041;-59
2022/01/31 01:17:10;;;;;;;16.17;5.00;;;;;;;8.20;73.93;101182.78;4977312;28;20049;-59
2022/01/31 01:19:36;;;;;;;18.77;5.00;;;;;;;8.25;73.48;101183.78;4985457;28;20049;-59
2022/01/31 01:22:02;;;;;;;15.25;5.05;;;;;;;8.28;73.65;101163.09;4986477;28;20643;-60
2022/01/31 01:24:28;;;;;;;13.30;4.90;;;;;;;8.29;74.17;101159.69;4987425;28;20549;-59
2022/01/31 01:26:53;;;;;;;14.25;5.25;;;;;;;8.28;74.53;101164.00;4982135;28;20106;-58
2022/01/31 01:29:20;;;;;;;13.43;4.60;;;;;;;8.42;74.35;101169.56;4983313;28;20275;-59
2022/01/31 01:31:46;;;;;;;15.48;4.47;;;;;;;8.50;74.46;101162.88;4984189;28;20729;-59
2022/01/31 01:34:12;;;;;;;18.08;4.75;;;;;;;8.58;74.65;101157.88;4990336;28;20042;-59
2022/01/31 01:36:38;;;;;;;20.27;5.13;;;;;;;8.68;74.25;101144.25;4988680;28;20042;-59
2022/01/31 01:39:05;;;;;;;25.50;5.18;;;;;;;8.78;74.42;101131.53;4985009;28;20042;-58
2022/01/31 01:41:30;;;;;;;29.05;4.88;;;;;;;8.87;74.00;101125.69;4977025;28;20058;-58
2022/01/31 01:43:56;;;;;;;26.33;4.28;;;;;;;8.89;74.27;101130.09;4989635;28;20046;-59
2022/01/31 01:46:21;;;;;;;22.42;4.30;;;;;;;8.90;74.10;101118.81;4988407;28;20052;-59
2022/01/31 01:48:47;;;;;;;29.23;4.53;;;;;;;8.99;74.29;101107.78;4987890;28;20046;-59
2022/01/31 01:51:12;;;;;;;24.85;4.20;;;;;;;9.13;73.60;101105.50;4975442;28;20046;-58
2022/01/31 01:53:38;;;;;;;27.55;4.38;;;;;;;9.17;73.42;101096.91;4984247;28;20046;-59
2022/01/31 01:56:04;;;;;;;24.48;4.00;;;;;;;9.16;73.05;101102.94;4983380;28;20048;-59
2022/01/31 01:58:37;;;;;;;24.58;3.75;;;;;;;9.00;73.02;101087.84;4986784;28;20116;-58
2022/01/31 02:01:03;;;;;;;21.95;3.60;;;;;;;9.15;72.13;101088.22;4978109;28;20041;-60
2022/01/31 02:03:30;;;;;;;11.40;3.38;;;;;;;9.16;71.82;101093.44;4991423;28;20495;-59
2022/01/31 02:05:56;;;;;;;15.43;3.58;;;;;;;9.18;71.55;101076.16;4986562;28;20168;-59
2022/01/31 02:08:23;;;;;;;18.05;3.78;;;;;;;9.13;71.51;101074.28;4986222;28;20085;-59
2022/01/31 02:10:49;;;;;;;23.42;4.25;;;;;;;9.16;71.25;101083.03;4991455;28;20168;-59
2022/01/31 02:13:17;;;;;;;19.48;3.85;;;;;;;9.02;71.20;101065.38;4978927;28;20123;-59
2022/01/31 02:15:51;;;;;;;21.95;4.30;;;;;;;8.91;71.47;101079.00;4986643;28;20089;-59
2022/01/31 02:18:18;;;;;;;15.80;3.78;;;;;;;9.01;71.40;101082.69;4984650;28;20505;-59
2022/01/31 02:20:44;;;;;;;21.98;3.58;;;;;;;9.05;71.30;101068.03;4992393;28;20113;-59
2022/01/31 02:23:12;;;;;;;20.65;3.70;;;;;;;8.90;70.78;101058.19;4972986;28;20042;-59
2022/01/31 02:26:09;;;;;;;15.02;4.13;;;;;;;8.92;70.50;101053.88;4981848;28;20525;-59
2022/01/31 02:28:36;;;;;;;16.08;3.40;;;;;;;9.03;70.24;101060.19;4942771;28;20084;-59
2022/01/31 02:31:03;;;;;;;17.98;3.25;;;;;;;8.97;69.85;101049.63;4971380;28;20046;-60
2022/01/31 02:33:28;;;;;;;10.70;2.83;;;;;;;9.08;69.76;101045.59;4980931;28;20484;-58
2022/01/31 02:35:56;;;;;;;14.82;3.22;;;;;;;9.16;68.94;101057.00;4985366;28;20656;-58
2022/01/31 02:38:22;;;;;;;15.02;2.90;;;;;;;9.13;68.97;101056.09;4990521;28;20943;-58
2022/01/31 02:40:50;;;;;;;17.33;3.08;;;;;;;9.07;69.02;101036.03;4987908;28;20137;-58
2022/01/31 02:43:26;;;;;;;16.30;3.08;;;;;;;9.11;68.66;101039.56;4979261;28;20073;-58
2022/01/31 02:45:51;;;;;;;12.43;2.40;;;;;;;9.08;68.52;101026.50;4983124;28;20387;-58
2022/01/31 02:48:20;;;;;;;11.45;2.90;;;;;;;9.07;68.17;101030.81;4985452;28;20053;-59
2022/01/31 02:50:46;;;;;;;12.20;2.28;;;;;;;9.10;67.33;101025.66;4983363;28;20779;-58
2022/01/31 02:53:13;;;;;;;13.57;2.75;;;;;;;9.13;67.04;101038.75;4972670;28;20070;-59
2022/01/31 02:55:44;;;;;;;11.43;2.78;;;;;;;9.12;67.14;101034.41;4984181;28;20045;-60
2022/01/31 02:58:10;;;;;;;19.55;2.83;;;;;;;9.05;66.47;101027.31;4980598;28;20515;-58
2022/01/31 03:00:36;;;;;;;17.80;2.85;;;;;;;8.98;66.74;101029.72;4986399;28;20515;-59
2022/01/31 03:03:03;;;;;;;14.60;2.67;;;;;;;8.98;66.00;101041.00;4984844;28;20041;-59
2022/01/31 03:05:28;;;;;;;15.20;2.72;;;;;;;8.94;66.51;101031.38;4986958;28;20060;-59
2022/01/31 03:07:54;;;;;;;14.10;2.42;;;;;;;8.85;66.66;101023.38;4988159;28;20046;-59
2022/01/31 03:10:19;;;;;;;19.65;2.88;;;;;;;8.73;66.79;101021.38;4987204;28;20056;-58
2022/01/31 03:12:44;;;;;;;20.73;2.42;;;;;;;8.80;66.60;101032.78;4989256;28;20372;-58
2022/01/31 03:15:10;;;;;;;17.70;2.50;;;;;;;8.70;66.91;101023.03;4970887;28;20078;-59
2022/01/31 03:17:35;;;;;;;19.23;2.92;;;;;;;8.64;66.81;101028.09;4986558;28;20822;-59
2022/01/31 03:20:01;;;;;;;15.32;2.40;;;;;;;8.66;66.37;101023.81;4983955;28;20046;-59
2022/01/31 03:22:27;;;;;;;12.50;1.95;;;;;;;8.66;66.18;101026.41;4985233;28;20046;-60
2022/01/31 03:24:52;;;;;;;18.77;2.75;;;;;;;8.72;66.26;100996.22;4986035;28;20044;-61
2022/01/31 03:27:17;;;;;;;15.35;2.70;;;;;;;8.77;65.90;101009.34;4973397;28;20308;-59
2022/01/31 03:29:43;;;;;;;16.17;2.35;;;;;;;8.76;65.15;101003.25;4988101;28;20353;-58
2022/01/31 03:32:09;;;;;;;16.33;2.35;;;;;;;8.82;65.41;101002.53;4986659;28;20125;-59
2022/01/31 03:34:34;;;;;;;14.77;2.33;;;;;;;8.94;65.32;100995.00;5001045;28;20076;-58
2022/01/31 03:36:59;;;;;;;24.48;3.08;;;;;;;8.97;64.54;100989.84;4981827;28;20030;-57
2022/01/31 03:39:25;;;;;;;18.50;2.38;;;;;;;9.01;64.15;100991.69;4999172;28;20120;-58
2022/01/31 03:41:51;;;;;;;14.60;3.03;;;;;;;9.07;63.78;100985.72;4990153;28;20340;-60
2022/01/31 03:44:16;;;;;;;16.50;2.20;;;;;;;8.91;64.13;100984.50;4988121;28;20065;-59
2022/01/31 03:46:42;;;;;;;11.32;2.05;;;;;;;8.98;63.58;100993.31;4985609;28;20041;-59
2022/01/31 03:49:07;;;;;;;13.48;2.67;;;;;;;8.93;63.33;100983.72;4980898;28;20758;-59
2022/01/31 03:51:33;;;;;;;18.50;2.50;;;;;;;8.83;63.68;100989.56;5001889;28;20050;-58
2022/01/31 03:53:58;;;;;;;18.38;2.50;;;;;;;8.83;62.94;100981.75;4982400;28;20046;-58
2022/01/31 03:56:23;;;;;;;15.48;2.22;;;;;;;8.94;62.42;100980.28;4984288;28;20128;-57
2022/01/31 03:58:49;;;;;;;19.80;2.60;;;;;;;9.06;62.68;100963.16;4978752;28;20046;-58
2022/01/31 04:01:14;;;;;;;15.57;2.63;;;;;;;8.91;62.91;100966.31;4977255;28;20085;-58
2022/01/31 04:03:40;;;;;;;20.00;2.35;;;;;;;9.09;61.76;100958.88;4981417;28;20509;-58
2022/01/31 04:06:05;;;;;;;13.82;2.40;;;;;;;9.00;62.10;100952.63;4980652;28;20070;-57
2022/01/31 04:08:31;;;;;;;11.63;2.15;;;;;;;8.77;63.12;100960.84;4986879;28;20060;-58
2022/01/31 04:10:56;;;;;;;17.55;2.45;;;;;;;9.04;61.97;100952.72;4984027;28;20108;-58
2022/01/31 04:13:22;;;;;;;16.88;2.65;;;;;;;9.05;61.33;100953.59;4979980;28;20531;-58
2022/01/31 04:15:47;;;;;;;14.45;2.33;;;;;;;9.11;61.85;100951.13;4986227;28;20128;-59
2022/01/31 04:18:13;;;;;;;12.35;2.25;;;;;;;9.25;61.16;100941.88;4974161;28;20053;-58
2022/01/31 04:20:39;;;;;;;19.17;2.30;;;;;;;9.11;61.00;100957.22;4983536;28;20041;-58
2022/01/31 04:23:17;;;;;;;13.93;2.00;;;;;;;9.13;61.25;100954.66;4978419;28;20383;-58
2022/01/31 04:28:20;;;;;;;12.45;1.98;;;;;;;9.20;60.47;100949.59;4986725;28;20466;-58
2022/01/31 04:31:01;;;;;;;16.42;2.38;;;;;;;9.35;59.60;100955.09;4991513;28;20042;-58
2022/01/31 04:33:27;;;;;;;14.55;2.20;;;;;;;9.42;59.82;100956.09;4976591;28;20077;-59
2022/01/31 04:35:53;;;;;;;12.75;2.13;;;;;;;9.34;59.33;100948.13;4986824;28;20430;-58
2022/01/31 04:38:19;;;;;;;17.92;2.72;;;;;;;9.32;59.26;100947.25;4990075;28;20180;-59
2022/01/31 04:40:45;;;;;;;15.98;2.30;;;;;;;9.15;59.57;100945.16;4993349;28;20045;-58
2022/01/31 04:43:11;;;;;;;17.17;2.50;;;;;;;9.22;59.89;100937.50;4984172;28;20046;-58
2022/01/31 04:45:37;;;;;;;17.75;2.42;;;;;;;9.23;59.30;100935.78;4996189;28;20051;-58
2022/01/31 04:48:02;;;;;;;21.30;2.70;;;;;;;9.33;60.14;100933.38;5003440;28;20076;-58
2022/01/31 04:50:28;;;;;;;15.00;2.20;;;;;;;9.21;60.32;100945.28;4982431;28;20444;-57
2022/01/31 04:52:53;;;;;;;17.05;2.45;;;;;;;9.17;61.84;100946.94;4989247;28;20045;-58
2022/01/31 04:55:18;;;;;;;18.25;2.33;;;;;;;9.10;62.69;100965.84;4982702;28;20331;-58
2022/01/31 04:57:44;;;;;;;15.88;2.40;;;;;;;8.71;64.46;100957.22;4985119;28;20078;-58
2022/01/31 05:00:10;;;;;;;13.88;2.50;;;;;;;8.66;66.15;100979.63;4990853;28;20066;-60
2022/01/31 05:02:36;;;;;;;14.40;2.33;;;;;;;8.51;67.35;100959.34;4985238;28;20052;-59
2022/01/31 05:05:02;;;;;;;15.80;2.60;;;;;;;8.30;68.37;100945.81;4981402;28;20057;-58
2022/01/31 05:07:27;;;;;;;21.25;2.67;;;;;;;8.36;68.15;100951.19;4988392;28;20534;-58
2022/01/31 05:09:53;;;;;;;20.40;2.78;;;;;;;8.20;67.85;100949.06;4986827;28;20049;-59
2022/01/31 05:12:18;;;;;;;22.92;2.90;;;;;;;8.29;67.27;100944.97;4991180;28;20501;-60
2022/01/31 05:14:44;;;;;;;25.77;3.33;;;;;;;8.29;67.11;100944.09;4989039;28;20586;-58
2022/01/31 05:17:09;;;;;;;18.75;3.05;;;;;;;8.36;66.62;100944.28;4977884;28;20111;-57
2022/01/31 05:19:34;;;;;;;23.33;3.15;;;;;;;8.41;66.91;100953.09;4991735;28;20128;-60
2022/01/31 05:22:00;;;;;;;21.50;3.40;;;;;;;8.53;66.60;100947.28;4985520;28;20049;-59
2022/01/31 05:24:26;;;;;;;24.50;3.40;;;;;;;8.48;65.95;100947.16;4989681;28;20552;-59
2022/01/31 05:26:52;;;;;;;16.00;2.90;;;;;;;8.29;65.21;100921.59;4984501;28;20682;-58
2022/01/31 05:29:18;;;;;;;20.23;3.00;;;;;;;8.48;64.34;100921.19;4986628;28;21012;-58
2022/01/31 05:31:43;;;;;;;18.17;2.60;;;;;;;8.58;63.83;100929.19;5004335;28;20096;-59
2022/01/31 05:34:08;;;;;;;20.25;3.13;;;;;;;8.52;63.74;100941.22;4988458;28;20711;-60
2022/01/31 05:36:34;;;;;;;21.52;3.08;;;;;;;8.64;63.36;100934.53;4988862;28;20050;-59
2022/01/31 05:39:00;;;;;;;18.88;3.20;;;;;;;8.69;62.55;100946.78;4982805;28;20056;-57
2022/01/31 05:41:25;;;;;;;22.10;3.05;;;;;;;8.78;62.72;100933.97;4981229;28;20123;-59
2022/01/31 05:43:50;;;;;;;18.85;3.45;;;;;;;8.67;63.46;100939.78;4990891;28;20705;-59
2022/01/31 05:46:16;;;;;;;25.35;4.80;;;;;;;8.82;62.41;100943.59;4989639;28;20037;-59
2022/01/31 05:48:41;;;;;;;18.85;3.53;;;;;;;8.74;62.96;100902.69;4985390;28;20025;-57
2022/01/31 05:51:16;;;;;;;24.33;3.15;;;;;;;8.79;62.36;100937.44;4997708;28;20449;-58
2022/01/31 05:53:42;;;;;;;17.52;3.13;;;;;;;8.78;63.03;100938.31;4983765;28;20045;-58
2022/01/31 05:56:08;;;;;;;22.85;3.33;;;;;;;8.92;62.51;100924.75;4990322;28;20045;-59
2022/01/31 05:58:34;;;;;;;22.60;2.88;;;;;;;8.99;62.10;100927.47;4988610;28;20069;-59
2022/01/31 06:01:00;;;;;;;19.65;3.10;;;;;;;8.94;62.00;100919.59;4985977;28;20466;-57
2022/01/31 06:03:25;;;;;;;21.52;3.03;;;;;;;8.87;62.19;100905.56;4983177;28;20137;-58
2022/01/31 06:05:51;;;;;;;18.40;2.78;;;;;;;8.73;61.58;100925.19;4983604;28;20073;-58
2022/01/31 06:08:16;;;;;;;29.95;2.85;;;;;;;8.95;61.17;100924.81;4986959;28;20402;-59
2022/01/31 06:10:44;;;;;;;25.38;3.35;;;;;;;8.93;61.06;100918.72;4985755;28;20073;-56
2022/01/31 06:13:10;;;;;;;32.22;3.50;;;;;;;8.98;61.18;100933.50;4972696;28;20130;-58
2022/01/31 06:15:35;;;;;;;19.30;2.83;;;;;;;8.88;61.55;100938.53;4998138;28;20392;-59
2022/01/31 06:18:01;;;;;;;23.90;3.30;;;;;;;8.98;60.78;100912.72;4987552;28;20572;-59
2022/01/31 06:20:27;;;;;;;20.80;2.70;;;;;;;9.04;60.28;100918.91;4988052;28;20121;-58
2022/01/31 06:22:53;;;;;;;21.58;3.17;;;;;;;9.20;59.96;100921.00;4983911;28;20125;-58
2022/01/31 06:25:19;;;;;;;24.80;3.63;;;;;;;9.03;60.09;100914.56;4979578;28;20266;-59
2022/01/31 06:27:44;;;;;;;21.40;3.25;;;;;;;9.17;59.64;100907.91;4989779;28;20046;-58
2022/01/31 06:30:10;;;;;;;17.92;2.70;;;;;;;9.17;59.81;100920.91;4980636;28;20556;-59
2022/01/31 06:32:36;;;;;;;22.58;3.08;;;;;;;9.14;59.51;100928.69;4987224;28;20390;-59
2022/01/31 06:35:03;;;;;;;22.42;2.88;;;;;;;9.02;59.45;100936.22;4985676;28;20052;-58
2022/01/31 06:37:28;;;;;;;18.02;2.90;;;;;;;9.01;59.42;100931.00;4983196;28;20041;-59
2022/01/31 06:39:54;;;;;;;17.02;2.33;;;;;;;9.15;59.57;100945.16;4989345;28;20411;-59
2022/01/31 06:42:19;;;;;;;23.33;3.13;;;;;;;9.09;61.15;100947.63;4990181;28;20402;-59
2022/01/31 06:44:45;;;;;;;19.40;2.88;;;;;;;8.94;62.20;100964.66;4987313;28;20177;-58
2022/01/31 06:47:10;;;;;;;29.05;3.30;;;;;;;8.61;64.50;100955.22;4977432;28;20345;-59
2022/01/31 06:49:35;;;;;;;22.35;3.28;;;;;;;8.61;65.20;100958.72;4986958;28;20085;-59
2022/01/31 06:52:01;;;;;;;23.08;2.83;;;;;;;8.63;65.39;100958.75;4979111;28;20121;-59
2022/01/31 06:54:26;;;;;;;26.42;3.25;;;;;;;8.47;65.81;100952.34;4984616;28;20571;-60
2022/01/31 06:56:52;;;;;;;25.20;3.63;;;;;;;8.23;66.01;100964.72;4988039;28;20525;-60
2022/01/31 06:59:18;;;;;;;24.27;3.35;;;;;;;8.38;66.44;100953.00;4995467;28;20051;-60
2022/01/31 07:01:43;;;;;;;27.95;3.10;;;;;;;8.26;66.34;100968.25;4982918;28;20456;-58
2022/01/31 07:04:11;;;;;;;22.50;3.10;;;;;;;8.27;66.42;100963.94;4974631;28;20066;-58
2022/01/31 07:06:37;;;;;;;27.45;3.50;;;;;;;8.32;65.92;100968.44;4984449;28;20118;-59
2022/01/31 07:09:03;;;;;;;26.02;3.10;;;;;;;8.25;65.82;100973.41;4985893;28;20688;-56
2022/01/31 07:11:33;;;;;;;24.40;3.25;;;;;;;8.42;65.91;100967.81;4984829;28;20101;-59
2022/01/31 07:14:14;;;;;;;31.02;3.55;;;;;;;8.32;65.97;100990.94;4979266;28;20038;-59
2022/01/31 07:16:42;;;;;;;20.92;2.92;;;;;;;8.51;64.88;100965.44;4984652;28;20172;-59
2022/01/31 07:19:09;;;;;;;25.05;3.67;;;;;;;8.44;64.95;100984.31;4978318;28;20054;-59
2022/01/31 07:21:45;;;;;;;28.95;3.80;;;;;;;8.50;65.19;100957.59;4987547;28;20044;-58
2022/01/31 07:26:43;;;;;;;25.38;4.15;;;;;;;8.70;63.98;100968.44;4974112;28;20091;-60
2022/01/31 07:29:09;;;;;;;27.67;4.05;;;;;;;8.65;64.12;100962.28;4975733;28;20033;-59
2022/01/31 07:31:35;;;;;;;28.60;3.67;;;;;;;8.53;63.92;100950.78;4975026;28;20077;-59
2022/01/31 07:34:00;;;;;;;28.50;3.17;;;;;;;8.69;64.59;100971.88;4998946;28;20481;-60
2022/01/31 07:36:26;;;;;;;32.05;3.92;;;;;;;8.56;65.01;100970.72;4986256;28;20042;-60
2022/01/31 07:38:51;;;;;;;30.52;4.00;;;;;;;8.39;65.11;100980.75;4981712;28;20401;-59
2022/01/31 07:41:16;;;;;;;30.42;3.47;;;;;;;8.60;63.94;100982.94;4975867;28;20299;-58
2022/01/31 07:43:44;;;;;;;28.60;3.53;;;;;;;8.51;63.45;100986.22;4979468;28;20386;-60
2022/01/31 07:46:11;;;;;;;29.80;3.80;;;;;;;8.78;63.22;100990.31;4982846;28;20033;-59
2022/01/31 07:48:36;;;;;;;24.10;3.15;;;;;;;8.87;62.97;100980.09;4986060;28;20121;-59
2022/01/31 07:51:02;;;;;;;24.02;3.47;;;;;;;8.79;62.48;100992.03;4982576;28;20049;-58
2022/01/31 07:53:27;;;;;;;19.88;3.17;;;;;;;8.85;62.58;101012.97;4975964;28;20128;-58
2022/01/31 07:55:52;;;;;;;28.30;3.50;;;;;;;9.00;61.71;100991.63;4977912;28;20045;-60
2022/01/31 07:58:20;;;;;;;27.80;3.58;;;;;;;8.76;61.58;100990.25;4980205;28;20725;-60
2022/01/31 08:00:45;;;;;;;27.75;3.50;;;;;;;8.80;61.63;100992.06;4979486;28;20046;-59
2022/01/31 08:03:11;;;;;;;31.67;3.55;;;;;;;9.06;61.67;100987.44;4973735;28;20445;-59
2022/01/31 08:05:36;;;;;;;35.13;4.30;;;;;;;9.05;61.12;101003.00;4982837;28;20380;-59
2022/01/31 08:08:01;;;;;;;23.10;3.40;;;;;;;9.08;60.59;100995.28;4985828;28;20129;-58
2022/01/31 08:10:27;;;;;;;26.25;3.75;;;;;;;9.35;60.34;101003.66;4985870;28;20099;-57
2022/01/31 08:12:54;;;;;;;31.75;4.60;;;;;;;9.27;60.59;101018.25;4978187;28;20072;-58
2022/01/31 08:15:25;;;;;;;32.58;4.30;;;;;;;9.35;61.03;101037.47;4974998;28;20354;-58
2022/01/31 08:17:51;;;;;;;24.08;3.97;;;;;;;9.12;63.98;101042.19;4993081;28;20516;-60
2022/01/31 08:20:16;;;;;;;30.80;4.28;;;;;;;8.83;64.95;101031.16;4984170;28;20073;-59
2022/01/31 08:22:42;;;;;;;27.38;3.53;;;;;;;8.74;64.88;101028.31;4981664;28;20117;-59
2022/01/31 08:25:13;;;;;;;29.27;3.55;;;;;;;8.91;63.95;101032.19;4975946;28;20135;-60
2022/01/31 08:27:41;;;;;;;29.02;3.90;;;;;;;8.87;63.05;101026.88;4984882;28;20033;-59
2022/01/31 08:30:11;;;;;;;29.58;3.67;;;;;;;8.64;62.78;101031.56;4986087;28;21313;-59
2022/01/31 08:32:44;;;;;;;26.63;3.03;;;;;;;8.91;62.66;101058.19;4984983;28;20111;-60
2022/01/31 08:37:54;;;;;;;;;;;;;;;8.94;62.06;101058.28;4994556;28;20104;-57
2022/01/31 08:40:20;;;;;;;30.92;3.40;;;;;;;8.88;61.02;101063.34;4996626;28;19929;-59
2022/01/31 08:42:46;;;;;;;30.58;3.75;;;;;;;8.92;60.97;101079.88;4984484;28;20042;-58
2022/01/31 08:45:11;;;;;;;31.10;3.80;;;;;;;9.07;60.87;101054.22;4978066;28;20240;-57
2022/01/31 08:47:41;;;;;;;26.50;3.78;;;;;;;9.18;60.15;101055.34;4987199;28;20037;-59
2022/01/31 08:50:09;;;;;;;32.65;4.68;;;;;;;9.15;60.96;101024.03;4982650;28;20077;-56
2022/01/31 08:52:35;;;;;;;35.80;4.00;;;;;;;9.18;61.08;101046.66;4985475;28;20281;-58
2022/01/31 08:55:01;;;;;;;28.38;4.30;;;;;;;9.23;60.56;101051.09;4979746;28;20129;-62
2022/01/31 08:57:27;;;;;;;32.25;4.00;;;;;;;9.23;60.75;101034.63;4985656;28;20267;-58
2022/01/31 08:59:52;;;;;;;31.70;4.00;;;;;;;9.39;60.74;101034.13;4982522;28;20050;-59
2022/01/31 09:02:25;;;;;;;28.73;4.00;;;;;;;9.35;60.48;101056.56;4979012;28;20149;-59
2022/01/31 09:04:51;;;;;;;31.83;4.45;;;;;;;9.25;61.35;101078.03;4982077;28;20096;-56
2022/01/31 09:07:21;;;;;;;39.17;4.93;;;;;;;9.29;61.38;101051.25;4978892;28;20081;-58
2022/01/31 09:09:53;;;;;;;35.75;5.32;;;;;;;8.94;62.14;101073.88;4983045;28;20754;-62
2022/01/31 09:12:30;;;;;;;34.75;4.85;;;;;;;9.36;60.36;101104.28;4985402;28;20042;-59
2022/01/31 09:14:55;;;;;;;33.13;4.90;;;;;;;9.21;58.51;101081.41;4985832;28;20065;-59
2022/01/31 09:17:20;;;;;;;32.95;4.40;;;;;;;9.15;57.52;101086.47;4981352;28;21408;-59
2022/01/31 09:19:46;;;;;;;31.27;4.45;;;;;;;9.20;57.63;101068.38;4979536;28;20470;-60
2022/01/31 09:22:11;;;;;;;38.10;4.85;;;;;;;9.32;56.86;101094.66;4987141;28;20246;-60
2022/01/31 09:24:39;;;;;;;42.78;5.13;;;;;;;9.39;57.19;101104.38;4987017;28;20046;-57
2022/01/31 09:27:08;;;;;;;33.58;4.40;;;;;;;9.63;56.03;101093.59;4975100;28;20624;-61
2022/01/31 09:29:34;;;;;;;38.45;4.88;;;;;;;9.77;56.55;101097.34;4961070;28;20492;-60
2022/01/31 09:32:02;;;;;;;36.97;4.93;;;;;;;9.81;56.78;101113.91;4980945;28;20072;-60
2022/01/31 09:34:30;;;;;;;44.45;5.03;;;;;;;9.61;56.50;101111.78;4987883;28;20521;-59
2022/01/31 09:36:56;;;;;;;33.20;4.88;;;;;;;9.49;55.54;101119.31;4986100;28;20100;-60
2022/01/31 09:39:21;;;;;;;30.48;4.43;;;;;;;9.70;54.78;101121.47;4972907;28;21374;-59
2022/01/31 09:41:52;;;;;;;31.83;4.30;;;;;;;9.62;54.35;101128.28;4990446;28;20081;-60
2022/01/31 09:44:24;;;;;;;30.15;4.35;;;;;;;9.50;54.26;101128.91;4965550;28;20073;-61
2022/01/31 09:49:16;;;;;;;33.42;4.82;;;;;;;9.55;54.39;101134.19;4984625;28;20605;-59
2022/01/31 09:51:42;;;;;;;36.85;4.28;;;;;;;9.73;53.55;101135.47;4987325;28;20062;-58
2022/01/31 09:54:07;;;;;;;38.75;5.03;;;;;;;9.51;53.62;101145.38;4990110;28;20109;-61
2022/01/31 09:56:37;;;;;;;38.97;5.47;;;;;;;9.59;53.62;101156.81;4978922;28;20046;-59
2022/01/31 09:59:04;;;;;;;32.83;4.97;;;;;;;9.67;53.22;101163.97;4981886;28;20569;-61
2022/01/31 10:01:35;;;;;;;38.88;5.07;;;;;;;9.68;54.86;101159.66;4980995;28;20048;-59
2022/01/31 10:04:09;;;;;;;39.60;4.63;;;;;;;9.61;56.71;101174.25;4985566;28;20042;-59
2022/01/31 10:06:39;;;;;;;42.08;4.75;;;;;;;9.35;59.53;101196.19;4990100;28;20390;-58
2022/01/31 10:09:13;;;;;;;35.78;5.20;;;;;;;9.06;60.82;101218.91;4982257;28;20088;-57
2022/01/31 10:17:29;;;;;;;37.50;5.25;;;;;;;9.12;57.95;101224.25;4980803;28;20037;-57
2022/01/31 10:20:03;;;;;;;29.63;4.50;;;;;;;9.22;57.48;101240.97;4979906;28;20033;-58
2022/01/31 10:22:31;;;;;;;39.53;4.85;;;;;;;9.25;57.31;101252.34;4985757;28;20681;-55
2022/01/31 10:24:59;;;;;;;40.30;5.18;;;;;;;9.25;57.71;101238.44;5004480;28;20034;-55
2022/01/31 10:27:28;;;;;;;38.85;5.72;;;;;;;9.61;57.01;101243.66;4997584;28;20048;-55
2022/01/31 10:29:56;;;;;;;36.80;5.30;;;;;;;9.26;57.58;101258.44;4980536;28;20777;-56
2022/01/31 10:32:32;;;;;;;37.97;5.00;;;;;;;9.52;57.24;101265.13;4988593;28;20042;-56
2022/01/31 10:35:00;;;;;;;38.10;5.00;;;;;;;9.55;57.38;101226.16;4998440;28;20393;-53
2022/01/31 10:37:29;;;;;;;40.33;5.35;;;;;;;9.50;56.61;101255.53;4981721;28;20152;-59
2022/01/31 10:53:42;;;;;;;39.10;5.30;;;;;;;9.25;59.40;101290.47;4979127;28;20052;-56
2022/01/31 10:56:07;;;;;;;32.05;4.90;;;;;;;9.48;58.26;101267.63;4983493;28;20084;-57
2022/01/31 10:58:33;;;;;;;33.28;5.53;;;;;;;9.32;57.32;101232.56;4988148;28;20489;-60
2022/01/31 11:01:13;;;;;;;36.55;5.70;;;;;;;9.47;56.97;101276.28;4984262;28;20078;-55
2022/01/31 11:03:38;;;;;;;40.60;5.50;;;;;;;9.56;55.79;101276.50;4978583;28;20072;-56
2022/01/31 11:06:09;;;;;;;42.33;5.03;;;;;;;9.48;55.59;101284.13;4999144;28;20124;-56
2022/01/31 11:08:34;;;;;;;41.28;5.50;;;;;;;9.27;56.19;101283.59;4987695;28;20485;-57
2022/01/31 11:11:00;;;;;;;37.40;5.40;;;;;;;9.46;56.05;101283.19;4982945;28;20034;-56
2022/01/31 11:13:26;;;;;;;43.83;4.95;;;;;;;9.66;55.84;101291.50;4983681;28;20808;-57
2022/01/31 11:15:53;;;;;;;36.92;5.75;;;;;;;9.39;56.56;101303.84;4984830;28;20069;-57
2022/01/31 11:18:20;;;;;;;37.80;5.88;;;;;;;9.26;57.07;101320.88;4985365;28;20053;-58
2022/01/31 11:20:48;;;;;;;43.53;5.90;;;;;;;9.15;58.14;101309.31;4979966;28;20050;-57
2022/01/31 11:23:14;;;;;;;50.22;5.78;;;;;;;9.31;58.26;101314.94;4980513;28;20073;-57
2022/01/31 11:25:41;;;;;;;38.72;5.80;;;;;;;9.28;59.25;101346.06;4981378;28;20128;-59
2022/01/31 11:28:10;;;;;;;39.28;5.18;;;;;;;8.98;61.02;101339.16;4973833;28;20072;-59
2022/01/31 11:30:36;;;;;;;48.50;6.63;;;;;;;8.84;61.18;101331.03;4979942;28;20049;-59
2022/01/31 11:33:02;;;;;;;43.38;6.00;;;;;;;8.89;61.91;101330.31;4980825;28;20073;-59
2022/01/31 11:35:27;;;;;;;47.72;6.03;;;;;;;8.57;62.18;101322.44;4976260;28;20144;-60
2022/01/31 11:37:53;;;;;;;40.40;5.40;;;;;;;8.74;62.54;101381.84;4984481;28;20039;-60
2022/01/31 11:40:19;;;;;;;39.30;5.50;;;;;;;8.81;62.18;101346.50;4981343;28;20181;-59
2022/01/31 11:42:46;;;;;;;41.40;5.07;;;;;;;8.67;62.21;101343.53;4985193;28;20088;-60
2022/01/31 11:45:41;;;;;;;40.78;5.40;;;;;;;8.54;62.91;101367.38;4973881;28;20052;-62
2022/01/31 11:48:23;;;;;;;51.95;6.88;;;;;;;8.38;65.12;101365.19;4979404;28;20198;-58
2022/01/31 11:50:58;;;;;;;43.88;5.47;;;;;;;8.40;64.79;101348.81;4979286;28;20512;-60
2022/01/31 11:53:32;;;;;;;43.30;5.65;;;;;;;8.26;64.89;101359.59;4981903;28;20452;-60
2022/01/31 11:56:14;;;;;;;45.90;5.60;;;;;;;8.36;65.00;101346.94;4983194;28;20047;-60